sensor_id;sensor_type;location;lat;lon;timestamp;P1;durP1;ratioP1;P2;durP2;ratioP2
20203;SDS011;10261;49.010;12.034;2023-07-13T00:00:24;3.25;;;2.50;;
20203;SDS011;10261;49.010;12.034;2023-07-13T00:01:27;6.65;;;3.22;;
20203;SDS011;10261;49.010;12.034;2023-07-13T00:02:30;6.40;;;3.25;;
20203;SDS011;10261;49.010;12.034;2023-07-13T00:03:35;5.93;;;2.60;;
20203;SDS011;10261;49.010;12.034;2023-07-13T00:04:37;3.42;;;2.80;;
20203;SDS011;10261;49.010;12.034;2023-07-13T00:05:39;4.20;;;3.03;;
20203;SDS011;10261;49.010;12.034;2023-07-13T00:06:42;4.75;;;3.00;;
20203;SDS011;10261;49.010;12.034;2023-07-13T00:07:45;4.75;;;3.20;;
20203;SDS011;10261;49.010;12.034;2023-07-13T00:08:49;3.55;;;3.15;;
20203;SDS011;10261;49.010;12.034;2023-07-13T00:09:51;7.20;;;2.75;;
20203;SDS011;10261;49.010;12.034;2023-07-13T00:10:54;4.90;;;3.20;;
20203;SDS011;10261;49.010;12.034;2023-07-13T00:11:56;4.55;;;2.97;;
20203;SDS011;10261;49.010;12.034;2023-07-13T00:12:59;4.97;;;2.88;;
20203;SDS011;10261;49.010;12.034;2023-07-13T00:14:02;6.03;;;3.00;;
20203;SDS011;10261;49.010;12.034;2023-07-13T00:15:06;4.43;;;3.10;;
20203;SDS011;10261;49.010;12.034;2023-07-13T00:16:13;3.90;;;2.97;;
20203;SDS011;10261;49.010;12.034;2023-07-13T00:17:15;4.22;;;3.22;;
20203;SDS011;10261;49.010;12.034;2023-07-13T00:18:18;4.70;;;3.40;;
20203;SDS011;10261;49.010;12.034;2023-07-13T00:19:22;5.32;;;3.15;;
20203;SDS011;10261;49.010;12.034;2023-07-13T00:20:24;4.15;;;2.80;;
20203;SDS011;10261;49.010;12.034;2023-07-13T00:21:26;4.90;;;3.35;;
20203;SDS011;10261;49.010;12.034;2023-07-13T00:22:29;3.40;;;2.75;;
20203;SDS011;10261;49.010;12.034;2023-07-13T00:23:32;5.90;;;3.25;;
20203;SDS011;10261;49.010;12.034;2023-07-13T00:24:35;3.45;;;2.55;;
20203;SDS011;10261;49.010;12.034;2023-07-13T00:25:42;4.25;;;3.30;;
20203;SDS011;10261;49.010;12.034;2023-07-13T00:26:45;3.05;;;2.70;;
20203;SDS011;10261;49.010;12.034;2023-07-13T00:27:48;4.85;;;3.05;;
20203;SDS011;10261;49.010;12.034;2023-07-13T00:28:51;3.63;;;3.33;;
20203;SDS011;10261;49.010;12.034;2023-07-13T00:29:53;10.65;;;3.47;;
20203;SDS011;10261;49.010;12.034;2023-07-13T00:30:56;4.00;;;3.08;;
20203;SDS011;10261;49.010;12.034;2023-07-13T00:31:58;3.47;;;3.03;;
20203;SDS011;10261;49.010;12.034;2023-07-13T00:33:01;5.90;;;3.28;;
20203;SDS011;10261;49.010;12.034;2023-07-13T00:34:18;3.35;;;3.03;;
20203;SDS011;10261;49.010;12.034;2023-07-13T00:35:22;5.70;;;3.22;;
20203;SDS011;10261;49.010;12.034;2023-07-13T00:36:24;3.75;;;2.90;;
20203;SDS011;10261;49.010;12.034;2023-07-13T00:37:27;3.90;;;2.70;;
20203;SDS011;10261;49.010;12.034;2023-07-13T00:38:29;4.28;;;3.35;;
20203;SDS011;10261;49.010;12.034;2023-07-13T00:39:31;3.30;;;3.00;;
20203;SDS011;10261;49.010;12.034;2023-07-13T00:40:34;5.03;;;3.80;;
20203;SDS011;10261;49.010;12.034;2023-07-13T00:41:36;4.22;;;3.05;;
20203;SDS011;10261;49.010;12.034;2023-07-13T00:42:40;4.57;;;2.97;;
20203;SDS011;10261;49.010;12.034;2023-07-13T00:44:05;5.00;;;3.00;;
20203;SDS011;10261;49.010;12.034;2023-07-13T00:46:51;4.35;;;2.75;;
20203;SDS011;10261;49.010;12.034;2023-07-13T00:47:54;4.15;;;2.80;;
20203;SDS011;10261;49.010;12.034;2023-07-13T00:48:59;3.22;;;2.90;;
20203;SDS011;10261;49.010;12.034;2023-07-13T00:50:04;4.43;;;3.58;;
20203;SDS011;10261;49.010;12.034;2023-07-13T00:51:10;3.30;;;2.85;;
20203;SDS011;10261;49.010;12.034;2023-07-13T00:52:12;5.18;;;3.20;;
20203;SDS011;10261;49.010;12.034;2023-07-13T00:53:15;7.22;;;2.67;;
20203;SDS011;10261;49.010;12.034;2023-07-13T00:54:21;5.28;;;2.83;;
20203;SDS011;10261;49.010;12.034;2023-07-13T00:55:28;5.55;;;3.33;;
20203;SDS011;10261;49.010;12.034;2023-07-13T00:56:30;3.58;;;3.28;;
20203;SDS011;10261;49.010;12.034;2023-07-13T00:57:35;8.52;;;2.90;;
20203;SDS011;10261;49.010;12.034;2023-07-13T00:58:37;7.82;;;3.45;;
20203;SDS011;10261;49.010;12.034;2023-07-13T00:59:42;5.93;;;2.90;;
20203;SDS011;10261;49.010;12.034;2023-07-13T01:00:48;3.38;;;3.00;;
20203;SDS011;10261;49.010;12.034;2023-07-13T01:01:52;4.00;;;2.78;;
20203;SDS011;10261;49.010;12.034;2023-07-13T01:02:54;7.93;;;2.88;;
20203;SDS011;10261;49.010;12.034;2023-07-13T01:03:58;4.47;;;2.80;;
20203;SDS011;10261;49.010;12.034;2023-07-13T01:04:59;3.78;;;3.10;;
20203;SDS011;10261;49.010;12.034;2023-07-13T01:06:03;4.25;;;3.08;;
20203;SDS011;10261;49.010;12.034;2023-07-13T01:07:06;5.28;;;3.40;;
20203;SDS011;10261;49.010;12.034;2023-07-13T01:08:09;4.40;;;2.88;;
20203;SDS011;10261;49.010;12.034;2023-07-13T01:09:11;4.05;;;2.90;;
20203;SDS011;10261;49.010;12.034;2023-07-13T01:10:15;7.85;;;3.28;;
20203;SDS011;10261;49.010;12.034;2023-07-13T01:11:20;4.65;;;3.13;;
20203;SDS011;10261;49.010;12.034;2023-07-13T01:12:24;8.88;;;3.25;;
20203;SDS011;10261;49.010;12.034;2023-07-13T01:13:26;3.70;;;2.88;;
20203;SDS011;10261;49.010;12.034;2023-07-13T01:14:29;3.78;;;3.17;;
20203;SDS011;10261;49.010;12.034;2023-07-13T01:15:35;4.15;;;3.10;;
20203;SDS011;10261;49.010;12.034;2023-07-13T01:16:40;4.25;;;2.60;;
20203;SDS011;10261;49.010;12.034;2023-07-13T01:17:44;7.82;;;2.80;;
20203;SDS011;10261;49.010;12.034;2023-07-13T01:18:47;13.25;;;3.60;;
20203;SDS011;10261;49.010;12.034;2023-07-13T01:19:49;4.68;;;3.22;;
20203;SDS011;10261;49.010;12.034;2023-07-13T01:20:54;5.10;;;2.97;;
20203;SDS011;10261;49.010;12.034;2023-07-13T01:21:57;3.17;;;2.88;;
20203;SDS011;10261;49.010;12.034;2023-07-13T01:22:59;4.53;;;3.15;;
20203;SDS011;10261;49.010;12.034;2023-07-13T01:24:02;4.25;;;2.97;;
20203;SDS011;10261;49.010;12.034;2023-07-13T01:25:05;7.78;;;3.08;;
20203;SDS011;10261;49.010;12.034;2023-07-13T01:26:07;4.20;;;2.63;;
20203;SDS011;10261;49.010;12.034;2023-07-13T01:27:12;10.43;;;2.80;;
20203;SDS011;10261;49.010;12.034;2023-07-13T01:28:15;6.30;;;2.92;;
20203;SDS011;10261;49.010;12.034;2023-07-13T01:29:20;6.45;;;3.15;;
20203;SDS011;10261;49.010;12.034;2023-07-13T01:30:23;4.18;;;2.55;;
20203;SDS011;10261;49.010;12.034;2023-07-13T01:31:26;5.75;;;3.25;;
20203;SDS011;10261;49.010;12.034;2023-07-13T01:32:28;3.83;;;3.08;;
20203;SDS011;10261;49.010;12.034;2023-07-13T01:33:32;4.45;;;3.42;;
20203;SDS011;10261;49.010;12.034;2023-07-13T01:34:34;5.47;;;2.85;;
20203;SDS011;10261;49.010;12.034;2023-07-13T01:35:38;3.63;;;3.03;;
20203;SDS011;10261;49.010;12.034;2023-07-13T01:36:42;4.82;;;3.20;;
20203;SDS011;10261;49.010;12.034;2023-07-13T01:37:44;7.95;;;3.30;;
20203;SDS011;10261;49.010;12.034;2023-07-13T01:38:46;7.13;;;2.70;;
20203;SDS011;10261;49.010;12.034;2023-07-13T01:39:49;4.07;;;3.10;;
20203;SDS011;10261;49.010;12.034;2023-07-13T01:40:51;4.10;;;3.20;;
20203;SDS011;10261;49.010;12.034;2023-07-13T01:41:54;3.35;;;3.05;;
20203;SDS011;10261;49.010;12.034;2023-07-13T01:42:57;4.45;;;2.58;;
20203;SDS011;10261;49.010;12.034;2023-07-13T01:44:01;3.40;;;3.10;;
20203;SDS011;10261;49.010;12.034;2023-07-13T01:45:03;2.60;;;2.40;;
20203;SDS011;10261;49.010;12.034;2023-07-13T01:46:06;4.07;;;3.55;;
20203;SDS011;10261;49.010;12.034;2023-07-13T01:47:24;3.65;;;2.90;;
20203;SDS011;10261;49.010;12.034;2023-07-13T01:48:29;7.65;;;3.50;;
20203;SDS011;10261;49.010;12.034;2023-07-13T01:49:31;7.47;;;3.65;;
20203;SDS011;10261;49.010;12.034;2023-07-13T01:50:34;3.85;;;3.35;;
20203;SDS011;10261;49.010;12.034;2023-07-13T01:51:37;3.70;;;2.78;;
20203;SDS011;10261;49.010;12.034;2023-07-13T01:52:41;8.52;;;3.40;;
20203;SDS011;10261;49.010;12.034;2023-07-13T01:53:43;6.65;;;3.50;;
20203;SDS011;10261;49.010;12.034;2023-07-13T01:54:45;3.40;;;3.10;;
20203;SDS011;10261;49.010;12.034;2023-07-13T01:55:47;10.77;;;4.07;;
20203;SDS011;10261;49.010;12.034;2023-07-13T01:56:50;5.20;;;4.20;;
20203;SDS011;10261;49.010;12.034;2023-07-13T01:57:53;7.15;;;3.42;;
20203;SDS011;10261;49.010;12.034;2023-07-13T01:58:54;5.95;;;3.15;;
20203;SDS011;10261;49.010;12.034;2023-07-13T01:59:58;6.22;;;3.60;;
20203;SDS011;10261;49.010;12.034;2023-07-13T02:01:00;4.15;;;3.75;;
20203;SDS011;10261;49.010;12.034;2023-07-13T02:02:03;6.43;;;3.85;;
20203;SDS011;10261;49.010;12.034;2023-07-13T02:03:06;4.07;;;3.67;;
20203;SDS011;10261;49.010;12.034;2023-07-13T02:04:08;4.30;;;3.90;;
20203;SDS011;10261;49.010;12.034;2023-07-13T02:05:12;7.30;;;3.30;;
20203;SDS011;10261;49.010;12.034;2023-07-13T02:06:15;8.77;;;3.72;;
20203;SDS011;10261;49.010;12.034;2023-07-13T02:07:18;4.38;;;3.63;;
20203;SDS011;10261;49.010;12.034;2023-07-13T02:08:24;4.13;;;3.72;;
20203;SDS011;10261;49.010;12.034;2023-07-13T02:09:27;3.72;;;3.03;;
20203;SDS011;10261;49.010;12.034;2023-07-13T02:10:29;7.38;;;3.40;;
20203;SDS011;10261;49.010;12.034;2023-07-13T02:11:32;3.95;;;2.85;;
20203;SDS011;10261;49.010;12.034;2023-07-13T02:12:34;9.07;;;4.10;;
20203;SDS011;10261;49.010;12.034;2023-07-13T02:13:36;4.88;;;3.40;;
20203;SDS011;10261;49.010;12.034;2023-07-13T02:14:39;7.53;;;3.42;;
20203;SDS011;10261;49.010;12.034;2023-07-13T02:15:41;3.40;;;3.10;;
20203;SDS011;10261;49.010;12.034;2023-07-13T02:16:44;4.15;;;3.70;;
20203;SDS011;10261;49.010;12.034;2023-07-13T02:17:46;4.85;;;3.45;;
20203;SDS011;10261;49.010;12.034;2023-07-13T02:18:49;5.93;;;3.15;;
20203;SDS011;10261;49.010;12.034;2023-07-13T02:19:53;4.53;;;3.20;;
20203;SDS011;10261;49.010;12.034;2023-07-13T02:20:56;4.40;;;3.20;;
20203;SDS011;10261;49.010;12.034;2023-07-13T02:21:58;3.70;;;3.30;;
20203;SDS011;10261;49.010;12.034;2023-07-13T02:23:01;8.70;;;3.38;;
20203;SDS011;10261;49.010;12.034;2023-07-13T02:24:05;3.60;;;3.30;;
20203;SDS011;10261;49.010;12.034;2023-07-13T02:25:08;7.82;;;4.20;;
20203;SDS011;10261;49.010;12.034;2023-07-13T02:26:10;5.15;;;3.63;;
20203;SDS011;10261;49.010;12.034;2023-07-13T02:27:13;6.30;;;3.33;;
20203;SDS011;10261;49.010;12.034;2023-07-13T02:28:15;7.05;;;3.63;;
20203;SDS011;10261;49.010;12.034;2023-07-13T02:29:17;4.22;;;3.80;;
20203;SDS011;10261;49.010;12.034;2023-07-13T02:30:19;3.67;;;3.15;;
20203;SDS011;10261;49.010;12.034;2023-07-13T02:31:25;4.28;;;3.40;;
20203;SDS011;10261;49.010;12.034;2023-07-13T02:32:27;6.35;;;3.20;;
20203;SDS011;10261;49.010;12.034;2023-07-13T02:33:30;4.00;;;3.20;;
20203;SDS011;10261;49.010;12.034;2023-07-13T02:34:33;4.50;;;3.63;;
20203;SDS011;10261;49.010;12.034;2023-07-13T02:35:36;3.75;;;3.20;;
20203;SDS011;10261;49.010;12.034;2023-07-13T02:36:38;3.63;;;3.10;;
20203;SDS011;10261;49.010;12.034;2023-07-13T02:37:40;7.07;;;3.38;;
20203;SDS011;10261;49.010;12.034;2023-07-13T02:38:42;4.10;;;3.50;;
20203;SDS011;10261;49.010;12.034;2023-07-13T02:39:47;3.63;;;3.28;;
20203;SDS011;10261;49.010;12.034;2023-07-13T02:40:49;7.15;;;3.53;;
20203;SDS011;10261;49.010;12.034;2023-07-13T02:41:52;5.20;;;3.60;;
20203;SDS011;10261;49.010;12.034;2023-07-13T02:42:54;6.15;;;4.05;;
20203;SDS011;10261;49.010;12.034;2023-07-13T02:43:57;3.05;;;2.85;;
20203;SDS011;10261;49.010;12.034;2023-07-13T02:45:05;3.60;;;3.10;;
20203;SDS011;10261;49.010;12.034;2023-07-13T02:46:10;6.32;;;3.75;;
20203;SDS011;10261;49.010;12.034;2023-07-13T02:47:12;3.83;;;3.20;;
20203;SDS011;10261;49.010;12.034;2023-07-13T02:48:15;4.15;;;3.30;;
20203;SDS011;10261;49.010;12.034;2023-07-13T02:49:17;4.80;;;3.20;;
20203;SDS011;10261;49.010;12.034;2023-07-13T02:50:19;5.93;;;3.53;;
20203;SDS011;10261;49.010;12.034;2023-07-13T02:51:22;3.97;;;3.35;;
20203;SDS011;10261;49.010;12.034;2023-07-13T02:52:24;4.55;;;2.90;;
20203;SDS011;10261;49.010;12.034;2023-07-13T02:53:27;5.15;;;3.53;;
20203;SDS011;10261;49.010;12.034;2023-07-13T02:54:29;3.42;;;3.13;;
20203;SDS011;10261;49.010;12.034;2023-07-13T02:55:33;4.18;;;3.70;;
20203;SDS011;10261;49.010;12.034;2023-07-13T02:56:35;7.93;;;3.50;;
20203;SDS011;10261;49.010;12.034;2023-07-13T02:57:40;6.40;;;2.90;;
20203;SDS011;10261;49.010;12.034;2023-07-13T02:58:42;6.80;;;4.38;;
20203;SDS011;10261;49.010;12.034;2023-07-13T02:59:44;3.90;;;3.50;;
20203;SDS011;10261;49.010;12.034;2023-07-13T03:00:46;4.45;;;3.22;;
20203;SDS011;10261;49.010;12.034;2023-07-13T03:01:51;3.83;;;3.30;;
20203;SDS011;10261;49.010;12.034;2023-07-13T03:02:53;6.00;;;3.45;;
20203;SDS011;10261;49.010;12.034;2023-07-13T03:03:58;5.00;;;3.35;;
20203;SDS011;10261;49.010;12.034;2023-07-13T03:05:00;5.72;;;2.92;;
20203;SDS011;10261;49.010;12.034;2023-07-13T03:06:04;4.97;;;3.20;;
20203;SDS011;10261;49.010;12.034;2023-07-13T03:07:07;3.75;;;3.42;;
20203;SDS011;10261;49.010;12.034;2023-07-13T03:08:10;5.00;;;2.90;;
20203;SDS011;10261;49.010;12.034;2023-07-13T03:09:13;9.57;;;3.05;;
20203;SDS011;10261;49.010;12.034;2023-07-13T03:10:16;2.50;;;2.30;;
20203;SDS011;10261;49.010;12.034;2023-07-13T03:11:19;5.03;;;3.40;;
20203;SDS011;10261;49.010;12.034;2023-07-13T03:12:22;5.22;;;3.28;;
20203;SDS011;10261;49.010;12.034;2023-07-13T03:13:25;7.57;;;2.88;;
20203;SDS011;10261;49.010;12.034;2023-07-13T03:14:27;6.40;;;3.10;;
20203;SDS011;10261;49.010;12.034;2023-07-13T03:15:29;3.47;;;3.08;;
20203;SDS011;10261;49.010;12.034;2023-07-13T03:16:31;6.07;;;3.83;;
20203;SDS011;10261;49.010;12.034;2023-07-13T03:17:34;7.43;;;3.10;;
20203;SDS011;10261;49.010;12.034;2023-07-13T03:18:37;3.95;;;3.00;;
20203;SDS011;10261;49.010;12.034;2023-07-13T03:19:40;3.42;;;3.05;;
20203;SDS011;10261;49.010;12.034;2023-07-13T03:20:42;2.92;;;2.70;;
20203;SDS011;10261;49.010;12.034;2023-07-13T03:21:45;8.63;;;3.78;;
20203;SDS011;10261;49.010;12.034;2023-07-13T03:22:47;4.80;;;3.20;;
20203;SDS011;10261;49.010;12.034;2023-07-13T03:23:50;3.35;;;2.88;;
20203;SDS011;10261;49.010;12.034;2023-07-13T03:24:51;8.80;;;3.20;;
20203;SDS011;10261;49.010;12.034;2023-07-13T03:26:00;4.07;;;3.40;;
20203;SDS011;10261;49.010;12.034;2023-07-13T03:27:06;6.25;;;2.92;;
20203;SDS011;10261;49.010;12.034;2023-07-13T03:28:08;5.50;;;3.30;;
20203;SDS011;10261;49.010;12.034;2023-07-13T03:29:10;9.57;;;3.90;;
20203;SDS011;10261;49.010;12.034;2023-07-13T03:30:13;8.73;;;2.97;;
20203;SDS011;10261;49.010;12.034;2023-07-13T03:31:17;7.05;;;3.28;;
20203;SDS011;10261;49.010;12.034;2023-07-13T03:32:21;4.07;;;3.22;;
20203;SDS011;10261;49.010;12.034;2023-07-13T03:33:23;8.38;;;3.85;;
20203;SDS011;10261;49.010;12.034;2023-07-13T03:34:26;3.40;;;3.10;;
20203;SDS011;10261;49.010;12.034;2023-07-13T03:35:28;3.83;;;3.30;;
20203;SDS011;10261;49.010;12.034;2023-07-13T03:36:31;6.05;;;3.00;;
20203;SDS011;10261;49.010;12.034;2023-07-13T03:37:35;7.65;;;3.95;;
20203;SDS011;10261;49.010;12.034;2023-07-13T03:38:38;4.18;;;3.78;;
20203;SDS011;10261;49.010;12.034;2023-07-13T03:39:41;5.18;;;3.85;;
20203;SDS011;10261;49.010;12.034;2023-07-13T03:40:43;3.90;;;3.28;;
20203;SDS011;10261;49.010;12.034;2023-07-13T03:41:46;7.95;;;3.53;;
20203;SDS011;10261;49.010;12.034;2023-07-13T03:42:49;3.38;;;2.85;;
20203;SDS011;10261;49.010;12.034;2023-07-13T03:43:52;3.70;;;3.40;;
20203;SDS011;10261;49.010;12.034;2023-07-13T03:44:54;5.55;;;3.55;;
20203;SDS011;10261;49.010;12.034;2023-07-13T03:45:57;6.65;;;3.03;;
20203;SDS011;10261;49.010;12.034;2023-07-13T03:46:59;6.50;;;3.10;;
20203;SDS011;10261;49.010;12.034;2023-07-13T03:48:02;7.70;;;3.15;;
20203;SDS011;10261;49.010;12.034;2023-07-13T03:49:05;8.25;;;4.50;;
20203;SDS011;10261;49.010;12.034;2023-07-13T03:50:08;4.45;;;3.70;;
20203;SDS011;10261;49.010;12.034;2023-07-13T03:51:10;3.58;;;3.28;;
20203;SDS011;10261;49.010;12.034;2023-07-13T03:52:14;4.18;;;3.63;;
20203;SDS011;10261;49.010;12.034;2023-07-13T03:53:16;7.65;;;4.13;;
20203;SDS011;10261;49.010;12.034;2023-07-13T03:54:20;5.03;;;3.95;;
20203;SDS011;10261;49.010;12.034;2023-07-13T03:55:22;7.18;;;3.25;;
20203;SDS011;10261;49.010;12.034;2023-07-13T03:56:25;7.10;;;4.15;;
20203;SDS011;10261;49.010;12.034;2023-07-13T03:57:27;5.32;;;3.40;;
20203;SDS011;10261;49.010;12.034;2023-07-13T03:58:31;6.63;;;3.45;;
20203;SDS011;10261;49.010;12.034;2023-07-13T03:59:34;6.05;;;3.97;;
20203;SDS011;10261;49.010;12.034;2023-07-13T04:00:37;4.80;;;3.40;;
20203;SDS011;10261;49.010;12.034;2023-07-13T04:01:39;6.10;;;3.80;;
20203;SDS011;10261;49.010;12.034;2023-07-13T04:02:42;10.50;;;3.67;;
20203;SDS011;10261;49.010;12.034;2023-07-13T04:03:44;5.70;;;3.60;;
20203;SDS011;10261;49.010;12.034;2023-07-13T04:04:48;11.60;;;3.83;;
20203;SDS011;10261;49.010;12.034;2023-07-13T04:05:50;6.32;;;3.60;;
20203;SDS011;10261;49.010;12.034;2023-07-13T04:06:53;10.73;;;3.60;;
20203;SDS011;10261;49.010;12.034;2023-07-13T04:07:56;7.22;;;4.25;;
20203;SDS011;10261;49.010;12.034;2023-07-13T04:08:59;5.25;;;3.92;;
20203;SDS011;10261;49.010;12.034;2023-07-13T04:10:02;9.65;;;4.50;;
20203;SDS011;10261;49.010;12.034;2023-07-13T04:11:06;6.25;;;4.30;;
20203;SDS011;10261;49.010;12.034;2023-07-13T04:12:08;7.25;;;3.60;;
20203;SDS011;10261;49.010;12.034;2023-07-13T04:13:11;16.92;;;3.80;;
20203;SDS011;10261;49.010;12.034;2023-07-13T04:14:14;6.13;;;3.92;;
20203;SDS011;10261;49.010;12.034;2023-07-13T04:15:17;7.63;;;4.00;;
20203;SDS011;10261;49.010;12.034;2023-07-13T04:16:19;9.27;;;3.88;;
20203;SDS011;10261;49.010;12.034;2023-07-13T04:17:23;9.82;;;4.57;;
20203;SDS011;10261;49.010;12.034;2023-07-13T04:18:25;9.15;;;5.03;;
20203;SDS011;10261;49.010;12.034;2023-07-13T04:19:28;10.55;;;5.47;;
20203;SDS011;10261;49.010;12.034;2023-07-13T04:20:29;9.43;;;3.53;;
20203;SDS011;10261;49.010;12.034;2023-07-13T04:21:31;4.90;;;3.95;;
20203;SDS011;10261;49.010;12.034;2023-07-13T04:22:34;6.40;;;4.78;;
20203;SDS011;10261;49.010;12.034;2023-07-13T04:23:36;12.00;;;4.93;;
20203;SDS011;10261;49.010;12.034;2023-07-13T04:24:40;6.38;;;3.90;;
20203;SDS011;10261;49.010;12.034;2023-07-13T04:25:43;14.48;;;4.22;;
20203;SDS011;10261;49.010;12.034;2023-07-13T04:26:46;11.52;;;4.05;;
20203;SDS011;10261;49.010;12.034;2023-07-13T04:27:49;6.07;;;4.55;;
20203;SDS011;10261;49.010;12.034;2023-07-13T04:28:52;12.30;;;4.10;;
20203;SDS011;10261;49.010;12.034;2023-07-13T04:29:55;13.73;;;4.38;;
20203;SDS011;10261;49.010;12.034;2023-07-13T04:30:58;3.88;;;3.47;;
20203;SDS011;10261;49.010;12.034;2023-07-13T04:32:00;14.88;;;4.25;;
20203;SDS011;10261;49.010;12.034;2023-07-13T04:33:03;11.35;;;3.58;;
20203;SDS011;10261;49.010;12.034;2023-07-13T04:34:05;5.95;;;3.80;;
20203;SDS011;10261;49.010;12.034;2023-07-13T04:35:08;5.00;;;3.95;;
20203;SDS011;10261;49.010;12.034;2023-07-13T04:36:11;7.65;;;3.90;;
20203;SDS011;10261;49.010;12.034;2023-07-13T04:37:14;8.07;;;4.50;;
20203;SDS011;10261;49.010;12.034;2023-07-13T04:38:16;9.30;;;4.32;;
20203;SDS011;10261;49.010;12.034;2023-07-13T04:39:19;5.22;;;3.60;;
20203;SDS011;10261;49.010;12.034;2023-07-13T04:40:22;7.45;;;3.95;;
20203;SDS011;10261;49.010;12.034;2023-07-13T04:41:25;5.53;;;3.22;;
20203;SDS011;10261;49.010;12.034;2023-07-13T04:42:27;8.40;;;4.00;;
20203;SDS011;10261;49.010;12.034;2023-07-13T04:43:29;6.90;;;3.63;;
20203;SDS011;10261;49.010;12.034;2023-07-13T04:44:32;8.07;;;3.47;;
20203;SDS011;10261;49.010;12.034;2023-07-13T04:45:36;9.35;;;4.18;;
20203;SDS011;10261;49.010;12.034;2023-07-13T04:46:39;7.05;;;3.42;;
20203;SDS011;10261;49.010;12.034;2023-07-13T04:47:41;4.55;;;3.42;;
20203;SDS011;10261;49.010;12.034;2023-07-13T04:48:44;7.35;;;3.83;;
20203;SDS011;10261;49.010;12.034;2023-07-13T04:49:46;6.88;;;2.75;;
20203;SDS011;10261;49.010;12.034;2023-07-13T04:50:53;3.50;;;2.90;;
20203;SDS011;10261;49.010;12.034;2023-07-13T04:51:56;8.07;;;3.58;;
20203;SDS011;10261;49.010;12.034;2023-07-13T04:52:59;9.93;;;3.15;;
20203;SDS011;10261;49.010;12.034;2023-07-13T04:54:01;10.65;;;3.65;;
20203;SDS011;10261;49.010;12.034;2023-07-13T04:55:04;3.80;;;3.20;;
20203;SDS011;10261;49.010;12.034;2023-07-13T04:56:07;6.50;;;3.30;;
20203;SDS011;10261;49.010;12.034;2023-07-13T04:57:10;11.32;;;3.53;;
20203;SDS011;10261;49.010;12.034;2023-07-13T04:58:12;5.32;;;2.88;;
20203;SDS011;10261;49.010;12.034;2023-07-13T04:59:15;3.20;;;2.90;;
20203;SDS011;10261;49.010;12.034;2023-07-13T05:00:17;7.22;;;3.45;;
20203;SDS011;10261;49.010;12.034;2023-07-13T05:01:22;7.18;;;3.10;;
20203;SDS011;10261;49.010;12.034;2023-07-13T05:02:24;5.93;;;3.10;;
20203;SDS011;10261;49.010;12.034;2023-07-13T05:03:28;9.05;;;3.65;;
20203;SDS011;10261;49.010;12.034;2023-07-13T05:04:30;10.50;;;3.97;;
20203;SDS011;10261;49.010;12.034;2023-07-13T05:05:33;11.75;;;2.85;;
20203;SDS011;10261;49.010;12.034;2023-07-13T05:06:35;3.88;;;2.95;;
20203;SDS011;10261;49.010;12.034;2023-07-13T05:07:38;4.10;;;2.70;;
20203;SDS011;10261;49.010;12.034;2023-07-13T05:08:40;3.05;;;2.75;;
20203;SDS011;10261;49.010;12.034;2023-07-13T05:09:43;14.10;;;4.30;;
20203;SDS011;10261;49.010;12.034;2023-07-13T05:10:45;8.80;;;3.38;;
20203;SDS011;10261;49.010;12.034;2023-07-13T05:11:48;8.20;;;3.35;;
20203;SDS011;10261;49.010;12.034;2023-07-13T05:12:50;5.68;;;2.80;;
20203;SDS011;10261;49.010;12.034;2023-07-13T05:13:53;5.57;;;2.63;;
20203;SDS011;10261;49.010;12.034;2023-07-13T05:14:55;6.65;;;3.38;;
20203;SDS011;10261;49.010;12.034;2023-07-13T05:15:59;4.15;;;2.10;;
20203;SDS011;10261;49.010;12.034;2023-07-13T05:17:04;5.60;;;2.90;;
20203;SDS011;10261;49.010;12.034;2023-07-13T05:18:07;10.70;;;3.17;;
20203;SDS011;10261;49.010;12.034;2023-07-13T05:19:08;4.22;;;2.40;;
20203;SDS011;10261;49.010;12.034;2023-07-13T05:20:11;7.28;;;2.92;;
20203;SDS011;10261;49.010;12.034;2023-07-13T05:21:13;5.30;;;2.80;;
20203;SDS011;10261;49.010;12.034;2023-07-13T05:22:16;3.15;;;2.30;;
20203;SDS011;10261;49.010;12.034;2023-07-13T05:23:18;4.45;;;2.60;;
20203;SDS011;10261;49.010;12.034;2023-07-13T05:24:21;4.93;;;2.80;;
20203;SDS011;10261;49.010;12.034;2023-07-13T05:25:26;12.90;;;2.55;;
20203;SDS011;10261;49.010;12.034;2023-07-13T05:26:29;3.53;;;2.58;;
20203;SDS011;10261;49.010;12.034;2023-07-13T05:27:31;5.15;;;2.08;;
20203;SDS011;10261;49.010;12.034;2023-07-13T05:28:33;2.72;;;2.33;;
20203;SDS011;10261;49.010;12.034;2023-07-13T05:29:35;3.58;;;2.42;;
20203;SDS011;10261;49.010;12.034;2023-07-13T05:30:37;8.65;;;3.00;;
20203;SDS011;10261;49.010;12.034;2023-07-13T05:31:40;5.53;;;2.58;;
20203;SDS011;10261;49.010;12.034;2023-07-13T05:32:44;6.35;;;2.83;;
20203;SDS011;10261;49.010;12.034;2023-07-13T05:33:47;5.18;;;2.63;;
20203;SDS011;10261;49.010;12.034;2023-07-13T05:34:49;2.38;;;1.98;;
20203;SDS011;10261;49.010;12.034;2023-07-13T05:35:52;4.85;;;2.53;;
20203;SDS011;10261;49.010;12.034;2023-07-13T05:36:53;2.58;;;2.08;;
20203;SDS011;10261;49.010;12.034;2023-07-13T05:37:56;4.25;;;2.63;;
20203;SDS011;10261;49.010;12.034;2023-07-13T05:38:59;6.40;;;2.42;;
20203;SDS011;10261;49.010;12.034;2023-07-13T05:40:02;4.55;;;2.30;;
20203;SDS011;10261;49.010;12.034;2023-07-13T05:41:04;4.18;;;2.40;;
20203;SDS011;10261;49.010;12.034;2023-07-13T05:42:06;4.10;;;2.17;;
20203;SDS011;10261;49.010;12.034;2023-07-13T05:43:09;4.45;;;2.20;;
20203;SDS011;10261;49.010;12.034;2023-07-13T05:44:12;12.57;;;2.15;;
20203;SDS011;10261;49.010;12.034;2023-07-13T05:45:14;4.03;;;1.95;;
20203;SDS011;10261;49.010;12.034;2023-07-13T05:46:17;2.95;;;1.88;;
20203;SDS011;10261;49.010;12.034;2023-07-13T05:47:19;5.25;;;2.28;;
20203;SDS011;10261;49.010;12.034;2023-07-13T05:48:23;5.32;;;2.00;;
20203;SDS011;10261;49.010;12.034;2023-07-13T05:49:25;5.32;;;2.15;;
20203;SDS011;10261;49.010;12.034;2023-07-13T05:50:28;3.55;;;2.05;;
20203;SDS011;10261;49.010;12.034;2023-07-13T05:51:30;3.85;;;2.38;;
20203;SDS011;10261;49.010;12.034;2023-07-13T05:52:33;4.05;;;1.88;;
20203;SDS011;10261;49.010;12.034;2023-07-13T05:53:34;5.30;;;1.95;;
20203;SDS011;10261;49.010;12.034;2023-07-13T05:54:37;2.42;;;1.80;;
20203;SDS011;10261;49.010;12.034;2023-07-13T05:55:40;4.05;;;1.88;;
20203;SDS011;10261;49.010;12.034;2023-07-13T05:56:44;3.03;;;1.90;;
20203;SDS011;10261;49.010;12.034;2023-07-13T05:57:46;5.13;;;2.17;;
20203;SDS011;10261;49.010;12.034;2023-07-13T05:58:49;4.15;;;2.22;;
20203;SDS011;10261;49.010;12.034;2023-07-13T05:59:51;2.60;;;1.70;;
20203;SDS011;10261;49.010;12.034;2023-07-13T06:00:59;5.40;;;2.25;;
20203;SDS011;10261;49.010;12.034;2023-07-13T06:02:03;3.15;;;1.85;;
20203;SDS011;10261;49.010;12.034;2023-07-13T06:03:06;4.13;;;2.25;;
20203;SDS011;10261;49.010;12.034;2023-07-13T06:04:09;4.55;;;2.13;;
20203;SDS011;10261;49.010;12.034;2023-07-13T06:05:12;2.15;;;1.50;;
20203;SDS011;10261;49.010;12.034;2023-07-13T06:06:14;5.97;;;1.90;;
20203;SDS011;10261;49.010;12.034;2023-07-13T06:07:18;7.82;;;2.00;;
20203;SDS011;10261;49.010;12.034;2023-07-13T06:08:20;3.53;;;1.63;;
20203;SDS011;10261;49.010;12.034;2023-07-13T06:09:23;3.15;;;1.70;;
20203;SDS011;10261;49.010;12.034;2023-07-13T06:10:25;2.75;;;2.25;;
20203;SDS011;10261;49.010;12.034;2023-07-13T06:11:27;6.22;;;2.25;;
20203;SDS011;10261;49.010;12.034;2023-07-13T06:12:31;3.13;;;2.00;;
20203;SDS011;10261;49.010;12.034;2023-07-13T06:13:34;3.15;;;1.65;;
20203;SDS011;10261;49.010;12.034;2023-07-13T06:14:36;3.03;;;1.80;;
20203;SDS011;10261;49.010;12.034;2023-07-13T06:15:39;3.47;;;2.00;;